createdAt,value
2022-08-10T00:01:53.586Z,42.95
2022-08-10T00:04:24.313Z,42.87
2022-08-10T00:06:52.645Z,43.31
2022-08-10T00:09:19.126Z,43.59
2022-08-10T00:11:45.562Z,43.68
2022-08-10T00:14:11.995Z,43.81
2022-08-10T00:16:38.448Z,44.08
2022-08-10T00:19:04.899Z,43.76
2022-08-10T00:21:31.412Z,44.10
2022-08-10T00:23:57.865Z,44.19
2022-08-10T00:26:24.294Z,44.14
2022-08-10T00:28:50.761Z,44.16
2022-08-10T00:31:17.269Z,44.42
2022-08-10T00:33:43.705Z,44.51
2022-08-10T00:36:10.214Z,44.74
2022-08-10T00:38:37.593Z,45.08
2022-08-10T00:41:04.215Z,45.19
2022-08-10T00:43:30.808Z,45.01
2022-08-10T00:45:58.800Z,45.57
2022-08-10T00:48:28.331Z,45.56
2022-08-10T00:50:54.949Z,45.54
2022-08-10T00:53:21.601Z,46.00
2022-08-10T00:57:15.048Z,45.88
2022-08-10T00:58:37.083Z,46.19
2022-08-10T01:01:05.882Z,46.12
2022-08-10T01:04:36.230Z,46.44
2022-08-10T01:06:30.409Z,46.57
2022-08-10T01:09:02.984Z,46.91
2022-08-10T01:12:27.771Z,46.90
2022-08-10T01:14:56.535Z,47.02
2022-08-10T01:17:50.154Z,47.34
2022-08-10T01:20:30.013Z,47.46
2022-08-10T01:23:27.736Z,47.59
2022-08-10T01:26:30.829Z,47.71
2022-08-10T01:29:26.198Z,47.87
2022-08-10T01:31:56.308Z,48.20
2022-08-10T01:34:30.822Z,48.20
2022-08-10T01:37:02.428Z,48.58
2022-08-10T01:39:35.167Z,48.47
2022-08-10T01:42:02.787Z,48.78
2022-08-10T01:44:32.589Z,48.81
2022-08-10T01:47:22.705Z,49.29
2022-08-10T01:49:56.558Z,49.41
2022-08-10T01:52:23.826Z,49.50
2022-08-10T01:54:51.999Z,49.67
2022-08-10T01:57:20.806Z,49.92
2022-08-10T01:59:58.492Z,50.11
2022-08-10T02:02:29.437Z,50.33
2022-08-10T02:04:56.189Z,50.28
2022-08-10T02:07:25.194Z,50.38
2022-08-10T02:09:53.585Z,50.41
2022-08-10T02:12:22.347Z,50.64
2022-08-10T02:14:58.273Z,50.82
2022-08-10T02:17:59.157Z,50.95
2022-08-10T02:20:23.246Z,51.19
2022-08-10T02:22:53.308Z,51.06
2022-08-10T02:25:41.123Z,51.46
2022-08-10T02:28:07.855Z,51.36
2022-08-10T02:30:35.274Z,51.29
2022-08-10T02:33:02.122Z,51.48
2022-08-10T02:35:30.663Z,51.39
2022-08-10T02:38:19.523Z,51.67
2022-08-10T02:42:18.075Z,51.69
2022-08-10T02:45:19.193Z,52.23
2022-08-10T02:46:30.505Z,52.43
2022-08-10T02:49:05.211Z,52.49
2022-08-10T02:52:06.354Z,52.58
2022-08-10T02:54:36.054Z,52.88
2022-08-10T02:57:06.796Z,53.28
2022-08-10T02:59:40.575Z,53.34
2022-08-10T03:02:08.733Z,53.59
2022-08-10T03:04:55.090Z,53.93
2022-08-10T03:07:43.581Z,53.99
2022-08-10T03:10:17.069Z,54.21
2022-08-10T03:12:44.298Z,54.31
2022-08-10T03:15:15.897Z,54.27
2022-08-10T03:17:58.106Z,54.47
2022-08-10T03:20:34.895Z,54.61
2022-08-10T03:23:07.727Z,54.53
2022-08-10T03:25:34.534Z,54.77
2022-08-10T03:28:01.245Z,54.92
2022-08-10T03:30:32.537Z,54.96
2022-08-10T03:33:00.562Z,55.21
2022-08-10T03:35:27.789Z,55.17
2022-08-10T03:37:59.407Z,55.42
2022-08-10T03:40:45.095Z,55.74
2022-08-10T03:43:16.823Z,56.09
2022-08-10T03:45:48.625Z,56.18
2022-08-10T03:48:23.767Z,56.19
2022-08-10T03:50:52.820Z,56.43
2022-08-10T03:54:02.298Z,56.54
2022-08-10T03:56:29.867Z,56.59
2022-08-10T03:58:53.341Z,56.79
2022-08-10T04:01:20.098Z,56.77
2022-08-10T04:04:13.731Z,57.06
2022-08-10T04:06:41.094Z,56.97
2022-08-10T04:09:07.579Z,57.09
2022-08-10T04:11:34.030Z,57.20
2022-08-10T04:14:00.505Z,57.38
2022-08-10T04:16:26.930Z,57.26
2022-08-10T04:18:53.496Z,57.48
2022-08-10T04:21:30.745Z,57.59
2022-08-10T04:23:58.360Z,57.52
2022-08-10T04:26:25.202Z,57.40
2022-08-10T04:28:52.762Z,57.49
2022-08-10T04:31:19.550Z,57.34
2022-08-10T04:33:48.910Z,57.17
2022-08-10T04:36:17.323Z,57.53
2022-08-10T04:38:44.174Z,57.27
2022-08-10T04:41:11.561Z,57.18
2022-08-10T04:43:38.280Z,57.41
2022-08-10T04:46:04.855Z,57.05
2022-08-10T04:48:59.672Z,57.11
2022-08-10T04:51:28.248Z,57.10
2022-08-10T04:54:03.992Z,57.08
2022-08-10T04:56:32.816Z,57.20
2022-08-10T04:59:00.198Z,57.06
2022-08-10T05:01:26.752Z,56.96
2022-08-10T05:04:36.943Z,56.94
2022-08-10T05:06:39.703Z,57.14
2022-08-10T05:09:06.155Z,57.06
2022-08-10T05:11:32.591Z,57.12
2022-08-10T05:13:59.030Z,57.30
2022-08-10T05:16:32.303Z,57.39
2022-08-10T05:18:59.068Z,57.44
2022-08-10T05:22:01.460Z,57.75
2022-08-10T05:24:11.976Z,57.64
2022-08-10T05:27:00.668Z,58.07
2022-08-10T05:29:24.876Z,57.90
2022-08-10T05:31:51.335Z,57.65
2022-08-10T05:34:20.466Z,57.89
2022-08-10T05:36:47.962Z,57.90
2022-08-10T05:39:15.028Z,58.01
2022-08-10T05:41:46.113Z,58.19
2022-08-10T05:44:14.584Z,58.45
2022-08-10T05:46:41.478Z,58.52
2022-08-10T05:49:07.906Z,58.75
2022-08-10T05:51:34.561Z,58.80
2022-08-10T05:54:06.117Z,58.88
2022-08-10T05:56:54.061Z,59.10
2022-08-10T06:00:30.847Z,59.16
2022-08-10T06:02:32.829Z,59.21
2022-08-10T06:05:09.258Z,59.01
2022-08-10T06:07:40.136Z,59.03
2022-08-10T06:10:10.442Z,58.85
2022-08-10T06:12:54.344Z,58.83
2022-08-10T06:15:50.881Z,58.87
2022-08-10T06:18:09.934Z,58.81
2022-08-10T06:20:36.696Z,58.89
2022-08-10T06:23:04.111Z,59.04
2022-08-10T06:26:11.503Z,59.10
2022-08-10T06:28:19.098Z,58.73
2022-08-10T06:30:46.340Z,58.31
2022-08-10T06:33:12.942Z,58.54
2022-08-10T06:35:39.717Z,58.64
2022-08-10T06:38:07.402Z,58.44
2022-08-10T06:40:39.908Z,58.30
2022-08-10T06:43:09.184Z,58.52
2022-08-10T06:45:41.588Z,58.15
2022-08-10T06:48:24.735Z,57.98
2022-08-10T06:50:58.054Z,58.58
2022-08-10T06:53:53.573Z,58.35
2022-08-10T06:56:36.067Z,58.32
2022-08-10T06:59:22.058Z,57.88
2022-08-10T07:01:52.754Z,57.71
2022-08-10T07:04:35.110Z,57.98
2022-08-10T07:07:06.747Z,57.94
2022-08-10T07:09:38.090Z,57.69
2022-08-10T07:12:07.890Z,57.50
2022-08-10T07:14:41.204Z,57.20
2022-08-10T07:17:15.170Z,57.34
2022-08-10T07:19:49.633Z,57.67
2022-08-10T07:23:05.905Z,57.63
2022-08-10T07:25:07.145Z,57.77
2022-08-10T07:27:58.167Z,57.29
2022-08-10T07:30:20.982Z,57.14
2022-08-10T07:32:50.247Z,56.84
2022-08-10T07:35:17.938Z,56.28
2022-08-10T07:37:49.361Z,56.52
2022-08-10T07:40:18.158Z,55.89
2022-08-10T07:42:46.221Z,55.29
2022-08-10T07:45:13.041Z,55.28
2022-08-10T07:47:54.729Z,55.09
2022-08-10T07:50:24.371Z,54.96
2022-08-10T07:52:52.210Z,54.49
2022-08-10T07:56:01.977Z,53.77
2022-08-10T07:58:07.625Z,53.99
2022-08-10T08:00:34.699Z,53.83
2022-08-10T08:03:02.312Z,53.98
2022-08-10T08:05:57.457Z,53.08
2022-08-10T08:08:17.244Z,53.51
2022-08-10T08:10:43.923Z,52.23
2022-08-10T08:13:10.504Z,52.02
2022-08-10T08:16:18.353Z,51.90
2022-08-10T08:18:26.356Z,51.34
2022-08-10T08:20:54.272Z,51.52
2022-08-10T08:24:10.410Z,51.55
2022-08-10T08:26:10.105Z,51.71
2022-08-10T08:28:37.303Z,50.93
2022-08-10T08:31:04.624Z,50.56
2022-08-10T08:33:42.023Z,49.49
2022-08-10T08:36:10.006Z,49.49
2022-08-10T08:38:37.008Z,48.56
2022-08-10T08:41:31.211Z,48.54
2022-08-10T08:44:21.603Z,48.80
2022-08-10T08:48:02.272Z,48.55
2022-08-10T08:50:25.407Z,47.89
2022-08-10T08:54:02.849Z,46.94
2022-08-10T08:56:57.826Z,46.98
2022-08-10T08:59:51.006Z,44.76
2022-08-10T09:02:23.306Z,44.49
2022-08-10T09:05:00.496Z,43.39
2022-08-10T09:08:02.142Z,42.31
2022-08-10T09:10:57.398Z,42.43
2022-08-10T09:13:44.903Z,42.76
2022-08-10T09:16:33.165Z,42.82
2022-08-10T09:19:35.031Z,42.25
2022-08-10T09:22:18.353Z,42.02
2022-08-10T09:24:59.414Z,41.66
2022-08-10T09:27:49.299Z,41.33
2022-08-10T09:30:31.622Z,40.71
2022-08-10T09:36:25.756Z,40.77
2022-08-10T09:36:37.562Z,39.42
2022-08-10T09:40:56.668Z,39.53
2022-08-10T09:42:18.682Z,39.18
2022-08-10T09:44:57.258Z,39.08
2022-08-10T09:48:00.916Z,38.69
2022-08-10T09:51:34.838Z,37.97
2022-08-10T09:54:00.346Z,37.75
2022-08-10T09:56:36.594Z,37.54
2022-08-10T09:59:59.630Z,37.57
2022-08-10T10:02:38.949Z,37.60
2022-08-10T10:05:32.685Z,37.45
2022-08-10T10:08:58.325Z,37.12
2022-08-10T10:11:57.517Z,36.71
2022-08-10T10:15:11.073Z,36.87
2022-08-10T10:18:02.941Z,36.34
2022-08-10T10:20:45.102Z,35.47
2022-08-10T10:23:18.635Z,35.80
2022-08-10T10:25:52.556Z,35.32
2022-08-10T10:28:59.755Z,35.50
2022-08-10T10:31:28.722Z,35.25
2022-08-10T10:34:05.015Z,35.27
2022-08-10T10:36:32.895Z,34.82
2022-08-10T10:39:00.114Z,35.13
2022-08-10T10:42:03.226Z,34.64
2022-08-10T10:44:33.426Z,34.33
2022-08-10T10:47:17.991Z,34.18
2022-08-10T10:50:06.946Z,34.21
2022-08-10T10:52:39.476Z,34.11
2022-08-10T10:55:34.578Z,33.72
2022-08-10T10:58:35.977Z,33.74
2022-08-10T11:01:14.594Z,33.70
2022-08-10T11:03:47.040Z,33.28
2022-08-10T11:06:40.856Z,33.34
2022-08-10T11:10:05.057Z,33.17
2022-08-10T11:12:18.242Z,33.04
2022-08-10T11:15:03.963Z,32.46
2022-08-10T11:17:34.729Z,32.83
2022-08-10T11:20:12.056Z,32.95
2022-08-10T11:22:48.324Z,31.84
2022-08-10T11:25:32.059Z,31.13
2022-08-10T11:28:26.251Z,30.94
2022-08-10T11:30:55.269Z,31.03
2022-08-10T11:34:03.913Z,31.79
2022-08-10T11:36:50.065Z,31.12
2022-08-10T11:39:35.304Z,31.20
2022-08-10T11:42:18.528Z,31.70
2022-08-10T11:44:56.190Z,31.40
2022-08-10T11:47:27.871Z,30.49
2022-08-10T11:50:02.217Z,30.38
2022-08-10T11:52:48.851Z,30.51
2022-08-10T11:55:23.570Z,30.53
2022-08-10T11:57:55.739Z,30.36
2022-08-10T12:00:24.780Z,29.81
2022-08-10T12:02:59.320Z,30.06
2022-08-10T12:05:52.052Z,29.96
2022-08-10T12:10:05.376Z,29.70
2022-08-10T12:11:23.754Z,29.66
2022-08-10T12:14:21.365Z,28.83
2022-08-10T12:16:51.515Z,29.20
2022-08-10T12:19:28.360Z,28.44
2022-08-10T12:22:05.842Z,27.94
2022-08-10T12:24:47.880Z,28.89
2022-08-10T12:27:20.978Z,29.49
2022-08-10T12:29:57.087Z,29.63
2022-08-10T12:32:53.422Z,29.41
2022-08-10T12:35:31.527Z,28.45
2022-08-10T12:38:21.512Z,28.64
2022-08-10T12:40:53.621Z,28.54
2022-08-10T12:44:09.830Z,27.70
2022-08-10T12:46:38.150Z,28.37
2022-08-10T12:49:29.349Z,27.82
2022-08-10T12:52:17.342Z,27.48
2022-08-10T12:54:44.285Z,27.08
2022-08-10T12:57:22.960Z,27.39
2022-08-10T12:59:52.669Z,28.15
2022-08-10T13:02:28.434Z,27.37
2022-08-10T13:04:57.937Z,27.64
2022-08-10T13:08:04.075Z,28.19
2022-08-10T13:10:20.038Z,27.41
2022-08-10T13:12:49.559Z,27.98
2022-08-10T13:15:45.415Z,27.82
2022-08-10T13:18:18.250Z,27.60
2022-08-10T13:20:50.363Z,27.75
2022-08-10T13:23:21.064Z,27.31
2022-08-10T13:25:50.807Z,26.93
2022-08-10T13:28:35.425Z,26.75
2022-08-10T13:31:08.219Z,27.89
2022-08-10T13:34:39.032Z,27.11
2022-08-10T13:36:37.851Z,27.18
2022-08-10T13:39:05.709Z,27.33
2022-08-10T13:41:37.250Z,27.76
2022-08-10T13:44:04.436Z,27.30
2022-08-10T13:46:31.158Z,27.77
2022-08-10T13:48:59.757Z,26.97
2022-08-10T13:51:54.279Z,26.95
2022-08-10T13:54:17.164Z,26.76
2022-08-10T13:56:45.554Z,26.75
2022-08-10T13:59:13.193Z,26.91
2022-08-10T14:01:48.072Z,26.88
2022-08-10T14:04:14.658Z,26.66
2022-08-10T14:06:41.909Z,26.56
2022-08-10T14:09:11.541Z,26.46
2022-08-10T14:11:39.806Z,26.66
2022-08-10T14:14:15.406Z,26.96
2022-08-10T14:16:43.325Z,26.65
2022-08-10T14:19:19.550Z,26.80
2022-08-10T14:21:46.491Z,26.39
2022-08-10T14:24:26.794Z,26.53
2022-08-10T14:27:04.544Z,26.24
2022-08-10T14:29:31.750Z,26.35
2022-08-10T14:32:02.275Z,26.91
2022-08-10T14:36:14.896Z,26.79
2022-08-10T14:37:21.737Z,26.76
2022-08-10T14:39:51.804Z,27.06
2022-08-10T14:42:27.626Z,27.10
2022-08-10T14:44:57.368Z,26.34
2022-08-10T14:48:01.981Z,26.68
2022-08-10T14:50:32.388Z,26.26
2022-08-10T14:53:10.214Z,26.12
2022-08-10T14:55:59.044Z,26.55
2022-08-10T14:58:28.984Z,26.62
2022-08-10T15:00:56.202Z,26.63
2022-08-10T15:03:59.184Z,26.77
2022-08-10T15:06:18.149Z,26.61
2022-08-10T15:08:47.224Z,26.53
2022-08-10T15:12:14.447Z,26.61
2022-08-10T15:14:33.959Z,26.96
2022-08-10T15:16:48.083Z,27.02
2022-08-10T15:20:00.677Z,26.73
2022-08-10T15:22:17.239Z,26.24
2022-08-10T15:25:03.575Z,26.56
2022-08-10T15:27:37.136Z,26.01
2022-08-10T15:30:29.514Z,25.71
2022-08-10T15:33:21.646Z,25.76
2022-08-10T15:36:23.982Z,27.14
2022-08-10T15:38:58.714Z,26.59
2022-08-10T15:41:58.459Z,26.20
2022-08-10T15:44:47.517Z,25.98
2022-08-10T15:47:27.154Z,26.36
2022-08-10T15:50:32.733Z,26.35
2022-08-10T15:53:03.023Z,25.90
2022-08-10T15:55:47.751Z,25.88
2022-08-10T15:58:37.629Z,25.86
2022-08-10T16:02:13.419Z,25.64
2022-08-10T16:04:31.669Z,26.26
2022-08-10T16:07:02.801Z,26.02
2022-08-10T16:10:22.307Z,25.94
2022-08-10T16:12:29.707Z,25.70
2022-08-10T16:14:57.117Z,25.31
2022-08-10T16:17:24.031Z,25.41
2022-08-10T16:19:52.891Z,25.35
2022-08-10T16:22:35.537Z,25.16
2022-08-10T16:25:13.042Z,25.01
2022-08-10T16:27:41.075Z,24.83
2022-08-10T16:30:07.638Z,23.24
2022-08-10T16:32:35.735Z,19.13
2022-08-10T16:35:09.392Z,16.78
2022-08-10T16:37:57.216Z,15.58
2022-08-10T16:40:24.867Z,13.75
2022-08-10T16:42:52.248Z,13.31
2022-08-10T16:45:39.391Z,12.27
2022-08-10T16:48:06.617Z,12.40
2022-08-10T16:50:38.426Z,11.63
2022-08-10T16:53:06.953Z,11.13
2022-08-10T16:55:47.895Z,11.53
2022-08-10T16:58:18.769Z,11.35
2022-08-10T17:00:46.468Z,10.76
2022-08-10T17:03:22.589Z,10.72
2022-08-10T17:06:10.804Z,10.34
2022-08-10T17:08:51.546Z,10.44
2022-08-10T17:11:19.457Z,10.56
2022-08-10T17:13:46.187Z,10.51
2022-08-10T17:16:13.387Z,10.72
2022-08-10T17:18:41.815Z,10.27
2022-08-10T17:21:22.089Z,11.53
2022-08-10T17:23:51.097Z,13.04
2022-08-10T17:26:36.078Z,13.83
2022-08-10T17:29:50.502Z,15.42
2022-08-10T17:32:06.910Z,16.36
2022-08-10T17:34:36.902Z,17.44
2022-08-10T17:37:06.052Z,17.68
2022-08-10T17:39:41.295Z,18.62
2022-08-10T17:42:08.276Z,19.23
2022-08-10T17:44:36.437Z,19.60
2022-08-10T17:47:11.169Z,19.85
2022-08-10T17:49:38.781Z,20.15
2022-08-10T17:52:07.792Z,20.88
2022-08-10T17:54:39.317Z,21.33
2022-08-10T17:57:11.677Z,21.35
2022-08-10T17:59:38.966Z,21.87
2022-08-10T18:02:10.820Z,22.32
2022-08-10T18:04:41.750Z,22.37
2022-08-10T18:07:10.122Z,22.68
2022-08-10T18:09:43.099Z,22.50
2022-08-10T18:12:30.679Z,23.17
2022-08-10T18:15:00.754Z,23.50
2022-08-10T18:17:38.466Z,23.91
2022-08-10T18:20:08.001Z,24.00
2022-08-10T18:22:42.421Z,24.19
2022-08-10T18:25:16.647Z,24.02
2022-08-10T18:28:01.338Z,24.41
2022-08-10T18:30:35.901Z,24.32
2022-08-10T18:33:04.801Z,24.75
2022-08-10T18:35:34.868Z,24.96
2022-08-10T18:38:02.067Z,24.83
2022-08-10T18:40:35.458Z,25.12
2022-08-10T18:43:08.577Z,25.03
2022-08-10T18:45:53.034Z,25.27
2022-08-10T18:48:22.684Z,25.58
2022-08-10T18:50:52.010Z,25.69
2022-08-10T18:53:33.684Z,25.69
2022-08-10T18:56:11.921Z,25.82
2022-08-10T18:58:50.064Z,26.14
2022-08-10T19:01:17.564Z,26.25
2022-08-10T19:04:01.152Z,26.37
2022-08-10T19:06:52.798Z,26.41
2022-08-10T19:09:45.783Z,26.62
2022-08-10T19:12:33.079Z,26.97
2022-08-10T19:15:06.044Z,26.78
2022-08-10T19:18:27.753Z,27.28
2022-08-10T19:20:58.533Z,27.27
2022-08-10T19:23:46.097Z,27.58
2022-08-10T19:26:44.054Z,27.91
2022-08-10T19:30:11.811Z,27.77
2022-08-10T19:32:45.374Z,27.78
2022-08-10T19:36:04.395Z,28.17
2022-08-10T19:38:56.770Z,28.32
2022-08-10T19:41:44.705Z,28.47
2022-08-10T19:44:47.319Z,28.67
2022-08-10T19:47:29.083Z,28.98
2022-08-10T19:50:09.455Z,29.03
2022-08-10T19:52:57.233Z,29.27
2022-08-10T19:55:34.008Z,29.68
2022-08-10T19:58:05.697Z,29.95
2022-08-10T20:00:53.783Z,29.80
2022-08-10T20:03:29.092Z,30.17
2022-08-10T20:06:19.045Z,30.10
2022-08-10T20:09:18.422Z,30.44
2022-08-10T20:11:58.963Z,30.38
2022-08-10T20:14:49.735Z,30.71
2022-08-10T20:17:25.576Z,31.07
2022-08-10T20:19:58.783Z,31.16
2022-08-10T20:22:29.414Z,31.14
2022-08-10T20:25:17.656Z,31.13
2022-08-10T20:28:00.252Z,31.34
2022-08-10T20:30:31.378Z,31.37
2022-08-10T20:33:26.486Z,31.35
2022-08-10T20:35:58.929Z,31.69
2022-08-10T20:38:32.436Z,31.33
2022-08-10T20:41:16.708Z,31.71
2022-08-10T20:44:04.082Z,31.70
2022-08-10T20:46:35.861Z,31.82
2022-08-10T20:49:35.888Z,31.76
2022-08-10T20:52:03.546Z,31.94
2022-08-10T20:54:36.958Z,32.08
2022-08-10T20:57:53.534Z,32.03
2022-08-10T21:00:11.108Z,32.07
2022-08-10T21:02:52.921Z,32.35
2022-08-10T21:05:30.331Z,32.34
2022-08-10T21:08:09.260Z,32.52
2022-08-10T21:10:52.440Z,32.48
2022-08-10T21:13:50.962Z,32.36
2022-08-10T21:16:21.396Z,32.58
2022-08-10T21:19:09.580Z,32.80
2022-08-10T21:22:04.215Z,32.63
2022-08-10T21:24:52.225Z,32.96
2022-08-10T21:27:48.753Z,32.57
2022-08-10T21:30:53.433Z,33.14
2022-08-10T21:33:50.882Z,33.23
2022-08-10T21:36:27.414Z,33.28
2022-08-10T21:39:11.316Z,33.16
2022-08-10T21:42:39.800Z,33.05
2022-08-10T21:45:57.853Z,33.28
2022-08-10T21:48:57.313Z,33.11
2022-08-10T21:52:02.136Z,33.26
2022-08-10T21:55:00.145Z,33.07
2022-08-10T21:57:49.001Z,33.45
2022-08-10T22:00:34.707Z,33.53
2022-08-10T22:03:22.862Z,33.75
2022-08-10T22:06:12.948Z,33.73
2022-08-10T22:09:03.987Z,33.59
2022-08-10T22:11:52.115Z,33.65
2022-08-10T22:14:43.765Z,33.79
2022-08-10T22:18:00.939Z,34.07
2022-08-10T22:20:42.982Z,34.02
2022-08-10T22:23:38.651Z,34.06
2022-08-10T22:26:34.751Z,34.29
2022-08-10T22:29:42.321Z,34.34
2022-08-10T22:32:39.317Z,34.40
2022-08-10T22:35:55.336Z,34.82
2022-08-10T22:39:03.709Z,35.03
2022-08-10T22:42:01.631Z,35.03
2022-08-10T22:44:47.140Z,34.98
2022-08-10T22:47:33.179Z,35.26
2022-08-10T22:50:03.312Z,35.66
2022-08-10T22:53:03.050Z,35.56
2022-08-10T22:55:57.039Z,35.83
2022-08-10T22:58:41.624Z,36.14
2022-08-10T23:01:41.973Z,36.17
2022-08-10T23:04:44.276Z,36.39
2022-08-10T23:07:14.684Z,36.49
2022-08-10T23:09:42.377Z,36.80
2022-08-10T23:12:12.491Z,36.78
2022-08-10T23:14:41.652Z,37.20
2022-08-10T23:18:01.426Z,37.41
2022-08-10T23:20:29.780Z,37.55
2022-08-10T23:23:07.428Z,37.94
2022-08-10T23:25:56.259Z,37.77
2022-08-10T23:28:55.464Z,38.12
2022-08-10T23:31:12.269Z,38.31
2022-08-10T23:33:39.230Z,38.66
2022-08-10T23:36:34.382Z,38.69
2022-08-10T23:38:57.350Z,39.12
2022-08-10T23:41:40.807Z,39.55
2022-08-10T23:44:08.140Z,39.64
2022-08-10T23:46:39.870Z,39.89
2022-08-10T23:49:07.902Z,40.00
2022-08-10T23:51:55.636Z,40.14
2022-08-10T23:54:23.281Z,40.35
2022-08-10T23:56:52.693Z,40.77
2022-08-10T23:59:23.801Z,40.84
